createdAt,value
2023-02-09T00:01:31.420Z,7.25
2023-02-09T00:03:59.776Z,8.90
2023-02-09T00:06:29.818Z,13.60
2023-02-09T00:08:58.179Z,9.50
2023-02-09T00:11:50.292Z,10.25
2023-02-09T00:14:21.777Z,7.88
2023-02-09T00:16:50.032Z,8.05
2023-02-09T00:19:17.660Z,10.35
2023-02-09T00:21:45.140Z,8.63
2023-02-09T00:24:13.208Z,8.80
2023-02-09T00:26:41.227Z,10.73
2023-02-09T00:29:09.074Z,9.55
2023-02-09T00:31:36.556Z,8.38
2023-02-09T00:34:04.642Z,11.88
2023-02-09T00:36:31.811Z,9.75
2023-02-09T00:38:59.377Z,8.18
2023-02-09T00:41:44.676Z,9.18
2023-02-09T00:44:12.604Z,9.05
2023-02-09T00:46:39.664Z,9.45
2023-02-09T00:49:07.016Z,10.30
2023-02-09T00:51:34.016Z,9.63
2023-02-09T00:54:02.666Z,10.85
2023-02-09T00:56:29.617Z,7.78
2023-02-09T00:58:56.520Z,10.27
2023-02-09T01:01:25.126Z,9.45
2023-02-09T01:03:53.351Z,9.02
2023-02-09T01:06:21.055Z,9.70
2023-02-09T01:08:48.251Z,9.93
2023-02-09T01:11:17.191Z,8.57
2023-02-09T01:13:45.222Z,10.07
2023-02-09T01:16:15.824Z,9.13
2023-02-09T01:18:43.140Z,8.88
2023-02-09T01:21:15.239Z,12.63
2023-02-09T01:23:42.392Z,6.78
2023-02-09T01:26:11.453Z,8.48
2023-02-09T01:28:38.857Z,9.73
2023-02-09T01:31:07.635Z,8.00
2023-02-09T01:33:34.655Z,8.65
2023-02-09T01:36:04.914Z,8.35
2023-02-09T01:38:31.883Z,7.57
2023-02-09T01:40:58.861Z,8.07
2023-02-09T01:43:25.812Z,8.02
2023-02-09T01:45:57.264Z,9.38
2023-02-09T01:48:28.434Z,11.10
2023-02-09T01:50:59.086Z,8.73
2023-02-09T01:53:27.444Z,8.32
2023-02-09T01:55:58.790Z,10.43
2023-02-09T01:58:27.950Z,10.43
2023-02-09T02:00:55.058Z,9.55
2023-02-09T02:03:27.384Z,8.23
2023-02-09T02:06:00.060Z,7.90
2023-02-09T02:08:49.192Z,9.82
2023-02-09T02:11:17.360Z,9.48
2023-02-09T02:13:44.545Z,8.65
2023-02-09T02:16:22.621Z,8.73
2023-02-09T02:19:14.060Z,8.52
2023-02-09T02:21:53.120Z,8.93
2023-02-09T02:25:02.011Z,9.70
2023-02-09T02:27:41.787Z,10.23
2023-02-09T02:30:24.171Z,8.73
2023-02-09T02:32:51.078Z,8.27
2023-02-09T02:35:42.320Z,9.60
2023-02-09T02:38:26.936Z,9.75
2023-02-09T02:41:12.853Z,9.52
2023-02-09T02:43:48.722Z,10.00
2023-02-09T02:46:33.013Z,10.75
2023-02-09T02:49:15.224Z,8.75
2023-02-09T02:51:48.654Z,8.45
2023-02-09T02:54:20.935Z,7.65
2023-02-09T02:56:53.511Z,8.85
2023-02-09T02:59:49.865Z,10.70
2023-02-09T03:02:22.341Z,9.77
2023-02-09T03:04:52.863Z,11.55
2023-02-09T03:07:20.104Z,9.32
2023-02-09T03:09:55.162Z,14.55
2023-02-09T03:12:30.383Z,13.13
2023-02-09T03:15:18.607Z,10.02
2023-02-09T03:18:28.943Z,9.73
2023-02-09T03:21:07.288Z,11.93
2023-02-09T03:23:46.038Z,13.18
2023-02-09T03:26:19.332Z,10.25
2023-02-09T03:28:49.002Z,11.60
2023-02-09T03:31:16.507Z,12.10
2023-02-09T03:33:44.449Z,10.70
2023-02-09T03:36:17.285Z,10.82
2023-02-09T03:38:44.556Z,12.05
2023-02-09T03:41:11.997Z,10.30
2023-02-09T03:43:57.419Z,10.05
2023-02-09T03:46:24.496Z,9.02
2023-02-09T03:48:51.468Z,12.23
2023-02-09T03:51:18.389Z,12.88
2023-02-09T03:53:47.165Z,10.95
2023-02-09T03:56:14.180Z,8.52
2023-02-09T03:58:41.197Z,8.27
2023-02-09T04:01:10.200Z,9.45
2023-02-09T04:03:39.745Z,8.50
2023-02-09T04:06:06.803Z,13.23
2023-02-09T04:08:33.814Z,10.57
2023-02-09T04:11:01.050Z,10.52
2023-02-09T04:13:28.576Z,13.82
2023-02-09T04:15:55.654Z,15.73
2023-02-09T04:18:22.786Z,8.40
2023-02-09T04:20:49.772Z,11.40
2023-02-09T04:23:17.321Z,10.75
2023-02-09T04:25:45.024Z,12.43
2023-02-09T04:28:12.105Z,12.38
2023-02-09T04:30:39.103Z,11.52
2023-02-09T04:33:06.023Z,9.65
2023-02-09T04:35:32.931Z,14.27
2023-02-09T04:37:59.840Z,11.43
2023-02-09T04:40:26.749Z,12.05
2023-02-09T04:42:53.679Z,14.68
2023-02-09T04:45:20.639Z,11.63
2023-02-09T04:47:47.579Z,10.57
2023-02-09T04:50:15.086Z,11.15
2023-02-09T04:52:41.982Z,9.13
2023-02-09T04:55:08.968Z,11.55
2023-02-09T04:58:02.012Z,11.50
2023-02-09T05:00:28.975Z,16.02
2023-02-09T05:02:55.965Z,16.15
2023-02-09T05:05:22.940Z,13.35
2023-02-09T05:07:49.915Z,11.20
2023-02-09T05:10:17.186Z,9.55
2023-02-09T05:12:44.142Z,11.02
2023-02-09T05:15:11.357Z,16.42
2023-02-09T05:17:38.302Z,14.50
2023-02-09T05:20:06.478Z,12.82
2023-02-09T05:22:33.512Z,12.52
2023-02-09T05:25:00.465Z,19.35
2023-02-09T05:27:27.580Z,9.07
2023-02-09T05:29:54.500Z,10.98
2023-02-09T05:32:21.564Z,11.13
2023-02-09T05:34:48.564Z,12.55
2023-02-09T05:37:15.471Z,9.68
2023-02-09T05:39:42.426Z,12.10
2023-02-09T05:42:15.362Z,11.27
2023-02-09T05:44:50.125Z,11.98
2023-02-09T05:47:22.556Z,13.80
2023-02-09T05:49:49.510Z,9.18
2023-02-09T05:52:16.992Z,18.23
2023-02-09T05:54:44.824Z,13.70
2023-02-09T05:57:11.789Z,13.60
2023-02-09T05:59:38.860Z,13.38
2023-02-09T06:02:05.924Z,11.38
2023-02-09T06:04:33.277Z,16.25
2023-02-09T06:07:00.300Z,16.80
2023-02-09T06:09:27.805Z,10.65
2023-02-09T06:11:54.746Z,13.02
2023-02-09T06:14:21.876Z,13.93
2023-02-09T06:16:48.992Z,15.75
2023-02-09T06:19:18.898Z,20.67
2023-02-09T06:21:45.927Z,12.45
2023-02-09T06:24:14.846Z,10.35
2023-02-09T06:26:42.437Z,10.82
2023-02-09T06:29:09.455Z,16.33
2023-02-09T06:31:37.312Z,12.30
2023-02-09T06:34:05.817Z,20.20
2023-02-09T06:36:33.186Z,14.68
2023-02-09T06:39:00.980Z,15.50
2023-02-09T06:41:28.010Z,20.25
2023-02-09T06:43:54.924Z,14.75
2023-02-09T06:46:21.966Z,14.38
2023-02-09T06:48:49.328Z,12.73
2023-02-09T06:51:17.289Z,28.95
2023-02-09T06:53:44.862Z,19.25
2023-02-09T06:56:13.512Z,28.13
2023-02-09T06:58:41.832Z,16.88
2023-02-09T07:01:12.491Z,12.45
2023-02-09T07:03:39.507Z,13.10
2023-02-09T07:06:17.960Z,15.68
2023-02-09T07:08:46.169Z,27.92
2023-02-09T07:11:15.457Z,15.25
2023-02-09T07:13:43.130Z,20.13
2023-02-09T07:16:11.575Z,28.42
2023-02-09T07:18:38.871Z,13.90
2023-02-09T07:21:12.302Z,16.30
2023-02-09T07:23:39.334Z,13.70
2023-02-09T07:26:10.586Z,14.60
2023-02-09T07:28:37.726Z,14.93
2023-02-09T07:31:07.087Z,16.33
2023-02-09T07:33:35.644Z,15.48
2023-02-09T07:36:07.371Z,17.90
2023-02-09T07:38:34.959Z,14.82
2023-02-09T07:41:03.821Z,16.63
2023-02-09T07:43:31.312Z,13.00
2023-02-09T07:46:06.596Z,10.90
2023-02-09T07:48:35.017Z,12.73
2023-02-09T07:51:02.472Z,16.90
2023-02-09T07:53:29.680Z,15.38
2023-02-09T07:55:57.132Z,12.85
2023-02-09T07:58:24.788Z,17.35
2023-02-09T08:00:52.208Z,18.58
2023-02-09T08:03:22.381Z,15.00
2023-02-09T08:06:19.680Z,17.40
2023-02-09T08:08:48.616Z,18.48
2023-02-09T08:11:19.295Z,17.83
2023-02-09T08:13:47.759Z,18.50
2023-02-09T08:16:17.900Z,19.10
2023-02-09T08:19:23.747Z,19.40
2023-02-09T08:21:51.216Z,18.63
2023-02-09T08:24:20.224Z,21.30
2023-02-09T08:26:47.274Z,15.70
2023-02-09T08:29:14.377Z,16.27
2023-02-09T08:31:41.494Z,16.45
2023-02-09T08:34:09.723Z,19.20
2023-02-09T08:36:37.668Z,21.52
2023-02-09T08:39:05.735Z,15.18
2023-02-09T08:41:34.523Z,20.27
2023-02-09T08:44:01.547Z,12.57
2023-02-09T08:46:28.816Z,15.60
2023-02-09T08:48:55.934Z,16.25
2023-02-09T08:51:22.914Z,14.50
2023-02-09T08:53:52.662Z,15.48
2023-02-09T08:56:21.649Z,13.63
2023-02-09T08:58:49.056Z,12.63
2023-02-09T09:01:16.170Z,16.83
2023-02-09T09:03:43.200Z,17.20
2023-02-09T09:06:12.093Z,21.10
2023-02-09T09:08:40.146Z,13.63
2023-02-09T09:11:12.844Z,15.02
2023-02-09T09:13:41.129Z,12.00
2023-02-09T09:16:14.449Z,20.13
2023-02-09T09:18:41.588Z,14.18
2023-02-09T09:21:09.501Z,14.68
2023-02-09T09:23:37.901Z,15.00
2023-02-09T09:26:05.100Z,13.07
2023-02-09T09:28:32.334Z,15.25
2023-02-09T09:31:05.797Z,12.77
2023-02-09T09:33:33.335Z,11.02
2023-02-09T09:36:01.785Z,11.23
2023-02-09T09:38:29.388Z,13.40
2023-02-09T09:40:56.908Z,13.38
2023-02-09T09:43:29.777Z,13.23
2023-02-09T09:45:57.194Z,15.73
2023-02-09T09:48:27.842Z,15.68
2023-02-09T09:50:58.769Z,13.05
2023-02-09T09:53:33.385Z,14.18
2023-02-09T09:56:07.924Z,15.07
2023-02-09T09:58:39.267Z,13.50
2023-02-09T10:01:06.864Z,12.57
2023-02-09T10:03:33.960Z,14.48
2023-02-09T10:06:11.558Z,11.85
2023-02-09T10:08:57.642Z,11.02
2023-02-09T10:11:40.379Z,20.10
2023-02-09T10:14:10.189Z,13.30
2023-02-09T10:16:40.391Z,15.93
2023-02-09T10:19:23.036Z,12.57
2023-02-09T10:21:50.209Z,12.52
2023-02-09T10:24:26.248Z,15.32
2023-02-09T10:27:02.470Z,15.07
2023-02-09T10:29:29.490Z,16.15
2023-02-09T10:32:05.262Z,11.57
2023-02-09T10:34:44.994Z,13.95
2023-02-09T10:37:19.946Z,17.60
2023-02-09T10:39:56.313Z,12.57
2023-02-09T10:42:36.717Z,13.88
2023-02-09T10:45:20.720Z,14.23
2023-02-09T10:48:14.105Z,10.73
2023-02-09T10:51:06.078Z,13.52
2023-02-09T10:53:56.712Z,10.90
2023-02-09T10:56:33.739Z,12.05
2023-02-09T10:59:04.147Z,13.05
2023-02-09T11:01:38.742Z,16.20
2023-02-09T11:04:27.222Z,10.50
2023-02-09T11:07:03.728Z,14.70
2023-02-09T11:09:34.797Z,13.68
2023-02-09T11:12:02.805Z,17.77
2023-02-09T11:14:30.155Z,15.35
2023-02-09T11:17:20.299Z,30.20
2023-02-09T11:19:50.606Z,17.95
2023-02-09T11:22:37.877Z,17.08
2023-02-09T11:25:27.717Z,12.85
2023-02-09T11:28:09.520Z,17.75
2023-02-09T11:31:05.723Z,10.98
2023-02-09T11:34:01.958Z,14.85
2023-02-09T11:36:34.201Z,29.25
2023-02-09T11:39:10.933Z,23.80
2023-02-09T11:42:18.353Z,12.90
2023-02-09T11:44:53.590Z,13.65
2023-02-09T11:47:48.801Z,15.60
2023-02-09T11:50:28.954Z,16.27
2023-02-09T11:52:59.742Z,14.25
2023-02-09T11:55:31.550Z,16.58
2023-02-09T11:58:13.492Z,16.38
2023-02-09T12:00:57.732Z,17.55
2023-02-09T12:03:29.008Z,17.02
2023-02-09T12:05:56.824Z,20.00
2023-02-09T12:08:45.276Z,13.88
2023-02-09T12:11:39.830Z,14.32
2023-02-09T12:14:50.319Z,17.42
2023-02-09T12:17:32.213Z,15.98
2023-02-09T12:20:01.470Z,17.33
2023-02-09T12:22:34.418Z,22.70
2023-02-09T12:25:33.237Z,15.90
2023-02-09T12:28:09.677Z,23.80
2023-02-09T12:30:42.713Z,21.00
2023-02-09T12:33:23.251Z,18.08
2023-02-09T12:36:08.479Z,23.65
2023-02-09T12:38:53.539Z,16.27
2023-02-09T12:41:31.266Z,17.33
2023-02-09T12:44:10.080Z,17.08
2023-02-09T12:46:51.479Z,16.40
2023-02-09T12:49:27.124Z,17.40
2023-02-09T12:52:03.258Z,21.58
2023-02-09T12:54:33.974Z,20.30
2023-02-09T12:57:16.286Z,20.30
2023-02-09T13:00:01.087Z,25.48
2023-02-09T13:02:50.017Z,21.02
2023-02-09T13:05:31.053Z,15.23
2023-02-09T13:08:20.121Z,18.23
2023-02-09T13:10:57.846Z,31.30
2023-02-09T13:13:31.687Z,22.90
2023-02-09T13:16:03.344Z,21.40
2023-02-09T13:18:50.242Z,22.65
2023-02-09T13:21:38.272Z,18.63
2023-02-09T13:24:19.214Z,17.48
2023-02-09T13:26:56.340Z,18.67
2023-02-09T13:29:24.766Z,17.83
2023-02-09T13:31:58.108Z,18.98
2023-02-09T13:34:44.254Z,19.90
2023-02-09T13:37:13.997Z,19.70
2023-02-09T13:39:42.045Z,17.40
2023-02-09T13:42:20.412Z,20.08
2023-02-09T13:44:52.035Z,14.80
2023-02-09T13:47:19.353Z,19.00
2023-02-09T13:50:17.872Z,20.15
2023-02-09T13:52:44.944Z,18.92
2023-02-09T13:55:12.603Z,18.50
2023-02-09T13:57:42.920Z,18.83
2023-02-09T14:00:25.954Z,18.85
2023-02-09T14:03:02.785Z,22.33
2023-02-09T14:05:39.113Z,16.63
2023-02-09T14:08:06.761Z,18.92
2023-02-09T14:10:35.174Z,22.52
2023-02-09T14:13:16.537Z,20.70
2023-02-09T14:16:09.680Z,19.90
2023-02-09T14:18:52.874Z,16.27
2023-02-09T14:21:23.187Z,20.45
2023-02-09T14:23:58.977Z,14.85
2023-02-09T14:26:28.885Z,21.50
2023-02-09T14:29:25.018Z,17.75
2023-02-09T14:31:59.718Z,18.40
2023-02-09T14:34:31.488Z,19.63
2023-02-09T14:37:05.224Z,17.75
2023-02-09T14:39:32.781Z,22.50
2023-02-09T14:42:18.049Z,20.67
2023-02-09T14:44:48.596Z,20.98
2023-02-09T14:47:35.240Z,23.48
2023-02-09T14:50:02.889Z,21.35
2023-02-09T14:52:32.602Z,18.45
2023-02-09T14:55:14.444Z,20.30
2023-02-09T14:57:41.398Z,20.25
2023-02-09T15:00:28.188Z,19.75
2023-02-09T15:02:55.892Z,19.00
2023-02-09T15:05:26.045Z,23.88
2023-02-09T15:07:58.279Z,25.50
2023-02-09T15:10:34.649Z,22.88
2023-02-09T15:13:03.160Z,19.15
2023-02-09T15:15:30.407Z,20.92
2023-02-09T15:18:01.518Z,24.65
2023-02-09T15:20:32.749Z,21.38
2023-02-09T15:23:00.838Z,25.13
2023-02-09T15:25:29.365Z,20.00
2023-02-09T15:27:58.420Z,17.83
2023-02-09T15:30:33.481Z,26.85
2023-02-09T15:33:01.128Z,21.65
2023-02-09T15:35:28.736Z,21.15
2023-02-09T15:37:59.673Z,25.27
2023-02-09T15:40:47.584Z,19.33
2023-02-09T15:43:38.810Z,19.33
2023-02-09T15:46:25.435Z,25.48
2023-02-09T15:48:52.475Z,16.83
2023-02-09T15:51:19.741Z,21.35
2023-02-09T15:53:47.719Z,19.55
2023-02-09T15:56:15.428Z,18.35
2023-02-09T15:58:44.922Z,27.20
2023-02-09T16:01:16.811Z,21.23
2023-02-09T16:03:44.396Z,20.98
2023-02-09T16:06:24.880Z,22.95
2023-02-09T16:08:53.747Z,20.00
2023-02-09T16:11:24.266Z,19.95
2023-02-09T16:13:51.562Z,18.45
2023-02-09T16:16:18.634Z,18.02
2023-02-09T16:18:46.865Z,18.80
2023-02-09T16:21:23.865Z,18.15
2023-02-09T16:23:52.710Z,21.50
2023-02-09T16:26:21.014Z,17.95
2023-02-09T16:28:48.190Z,22.13
2023-02-09T16:31:15.229Z,21.15
2023-02-09T16:33:43.435Z,17.92
2023-02-09T16:36:19.766Z,19.00
2023-02-09T16:38:47.057Z,19.52
2023-02-09T16:41:35.266Z,19.10
2023-02-09T16:44:11.727Z,19.75
2023-02-09T16:46:38.938Z,17.52
2023-02-09T16:49:06.101Z,16.77
2023-02-09T16:51:34.431Z,18.15
2023-02-09T16:54:01.413Z,20.35
2023-02-09T16:56:30.808Z,22.00
2023-02-09T16:58:57.798Z,16.35
2023-02-09T17:01:24.946Z,21.58
2023-02-09T17:03:56.445Z,18.45
2023-02-09T17:06:26.608Z,20.30
2023-02-09T17:08:56.415Z,21.95
2023-02-09T17:11:26.559Z,21.05
2023-02-09T17:13:53.881Z,25.55
2023-02-09T17:16:29.736Z,20.25
2023-02-09T17:19:00.874Z,29.15
2023-02-09T17:21:31.559Z,22.25
2023-02-09T17:23:58.616Z,27.52
2023-02-09T17:26:25.921Z,22.52
2023-02-09T17:28:53.124Z,24.83
2023-02-09T17:31:24.201Z,21.13
2023-02-09T17:33:56.948Z,24.67
2023-02-09T17:36:27.408Z,31.30
2023-02-09T17:38:57.198Z,25.17
2023-02-09T17:41:30.537Z,21.80
2023-02-09T17:44:21.973Z,22.42
2023-02-09T17:46:54.021Z,26.15
2023-02-09T17:49:20.983Z,29.65
2023-02-09T17:51:48.883Z,25.45
2023-02-09T17:54:18.834Z,21.70
2023-02-09T17:56:46.332Z,21.13
2023-02-09T17:59:14.857Z,24.85
2023-02-09T18:01:45.193Z,24.27
2023-02-09T18:04:21.877Z,22.30
2023-02-09T18:06:49.137Z,21.17
2023-02-09T18:09:16.704Z,25.95
2023-02-09T18:11:52.676Z,18.73
2023-02-09T18:14:22.286Z,24.13
2023-02-09T18:16:52.032Z,22.10
2023-02-09T18:19:19.157Z,18.80
2023-02-09T18:21:54.562Z,23.30
2023-02-09T18:24:24.185Z,23.63
2023-02-09T18:26:51.476Z,19.58
2023-02-09T18:29:20.491Z,21.02
2023-02-09T18:31:47.680Z,21.13
2023-02-09T18:34:16.342Z,19.08
2023-02-09T18:36:43.611Z,18.65
2023-02-09T18:39:10.666Z,22.40
2023-02-09T18:41:37.614Z,19.30
2023-02-09T18:44:04.655Z,21.50
2023-02-09T18:46:32.687Z,25.13
2023-02-09T18:49:01.848Z,26.40
2023-02-09T18:51:31.352Z,26.27
2023-02-09T18:53:58.976Z,25.90
2023-02-09T18:56:28.228Z,25.83
2023-02-09T18:58:55.626Z,20.58
2023-02-09T19:01:23.680Z,23.48
2023-02-09T19:03:54.477Z,32.90
2023-02-09T19:06:22.823Z,23.70
2023-02-09T19:08:50.421Z,27.65
2023-02-09T19:11:20.555Z,30.95
2023-02-09T19:14:08.676Z,25.52
2023-02-09T19:16:36.762Z,27.48
2023-02-09T19:19:04.351Z,27.13
2023-02-09T19:21:32.316Z,28.08
2023-02-09T19:23:59.285Z,27.58
2023-02-09T19:26:26.254Z,33.00
2023-02-09T19:28:55.735Z,27.65
2023-02-09T19:31:22.788Z,30.13
2023-02-09T19:33:49.758Z,24.90
2023-02-09T19:36:16.763Z,28.92
2023-02-09T19:38:43.712Z,26.58
2023-02-09T19:41:12.063Z,28.40
2023-02-09T19:43:39.959Z,31.13
2023-02-09T19:46:08.084Z,30.13
2023-02-09T19:48:35.167Z,27.08
2023-02-09T19:51:02.251Z,29.08
2023-02-09T19:53:29.265Z,28.77
2023-02-09T19:55:56.262Z,28.88
2023-02-09T19:58:23.822Z,27.02
2023-02-09T20:00:51.978Z,24.13
2023-02-09T20:03:19.215Z,30.73
2023-02-09T20:05:47.170Z,25.75
2023-02-09T20:08:16.778Z,25.92
2023-02-09T20:10:44.598Z,30.77
2023-02-09T20:13:15.773Z,32.13
2023-02-09T20:15:43.794Z,25.25
2023-02-09T20:18:12.640Z,33.05
2023-02-09T20:20:42.999Z,26.13
2023-02-09T20:23:10.420Z,31.80
2023-02-09T20:25:40.818Z,29.63
2023-02-09T20:28:07.937Z,27.92
2023-02-09T20:30:35.331Z,25.40
2023-02-09T20:33:02.369Z,27.92
2023-02-09T20:35:29.463Z,23.70
2023-02-09T20:37:56.449Z,31.67
2023-02-09T20:40:23.942Z,31.83
2023-02-09T20:43:09.334Z,27.08
2023-02-09T20:45:54.924Z,25.60
2023-02-09T20:48:21.875Z,27.48
2023-02-09T20:50:49.150Z,28.25
2023-02-09T20:53:16.397Z,27.08
2023-02-09T20:55:43.825Z,27.85
2023-02-09T20:58:13.560Z,25.23
2023-02-09T21:00:46.700Z,32.00
2023-02-09T21:03:13.823Z,29.00
2023-02-09T21:05:40.985Z,25.15
2023-02-09T21:08:09.324Z,23.83
2023-02-09T21:10:38.534Z,29.73
2023-02-09T21:13:07.297Z,27.38
2023-02-09T21:15:38.508Z,27.20
2023-02-09T21:18:06.770Z,26.55
2023-02-09T21:20:36.998Z,24.02
2023-02-09T21:23:04.286Z,27.30
2023-02-09T21:25:31.635Z,26.52
2023-02-09T21:27:59.836Z,26.55
2023-02-09T21:30:27.535Z,25.98
2023-02-09T21:32:55.866Z,32.97
2023-02-09T21:35:23.202Z,28.55
2023-02-09T21:37:50.134Z,25.83
2023-02-09T21:40:17.394Z,26.20
2023-02-09T21:42:44.421Z,30.65
2023-02-09T21:45:11.595Z,32.85
2023-02-09T21:47:39.365Z,23.88
2023-02-09T21:50:08.979Z,33.05
2023-02-09T21:52:36.074Z,26.55
2023-02-09T21:55:04.421Z,26.00
2023-02-09T21:57:31.692Z,29.15
2023-02-09T21:59:59.883Z,33.15
2023-02-09T22:02:27.459Z,28.92
2023-02-09T22:04:54.477Z,29.85
2023-02-09T22:07:21.422Z,27.20
2023-02-09T22:09:48.442Z,27.58
2023-02-09T22:12:15.555Z,28.35
2023-02-09T22:14:42.531Z,29.20
2023-02-09T22:17:09.448Z,31.00
2023-02-09T22:19:37.298Z,28.27
2023-02-09T22:22:05.014Z,28.50
2023-02-09T22:24:34.761Z,27.02
2023-02-09T22:27:02.600Z,29.50
2023-02-09T22:29:29.953Z,32.72
2023-02-09T22:31:58.183Z,31.55
2023-02-09T22:34:25.451Z,29.30
2023-02-09T22:36:53.685Z,28.13
2023-02-09T22:39:21.383Z,31.60
2023-02-09T22:41:48.511Z,30.35
2023-02-09T22:44:17.087Z,30.08
2023-02-09T22:46:45.562Z,28.48
2023-02-09T22:49:18.464Z,33.50
2023-02-09T22:51:46.811Z,33.30
2023-02-09T22:54:15.569Z,31.25
2023-02-09T22:56:43.027Z,26.90
2023-02-09T22:59:11.948Z,28.58
2023-02-09T23:01:39.351Z,31.20
2023-02-09T23:04:06.539Z,28.42
2023-02-09T23:06:33.597Z,30.17
2023-02-09T23:09:04.614Z,31.92
2023-02-09T23:11:32.044Z,29.77
2023-02-09T23:14:10.179Z,35.33
2023-02-09T23:16:40.280Z,37.33
2023-02-09T23:19:10.993Z,26.10
2023-02-09T23:21:41.592Z,32.25
2023-02-09T23:24:10.114Z,30.17
2023-02-09T23:26:38.104Z,29.40
2023-02-09T23:29:07.931Z,31.23
2023-02-09T23:31:35.453Z,25.85
2023-02-09T23:34:02.411Z,29.08
2023-02-09T23:36:30.854Z,26.90
2023-02-09T23:39:00.341Z,27.60
2023-02-09T23:41:27.765Z,28.55
2023-02-09T23:43:55.171Z,29.83
2023-02-09T23:46:28.010Z,24.63
2023-02-09T23:48:56.741Z,27.08
2023-02-09T23:51:32.250Z,28.38
2023-02-09T23:54:02.068Z,27.77
2023-02-09T23:56:31.808Z,29.30
2023-02-09T23:58:58.838Z,26.42
